sensor_id;sensor_type;location;lat;lon;timestamp;pressure;altitude;pressure_sealevel;temperature;humidity
21821;BME280;11073;48.586;12.066;2023-03-22T00:02:16;96281.91;;;11.96;59.61
21821;BME280;11073;48.586;12.066;2023-03-22T00:05:06;96293.34;;;11.98;59.48
21821;BME280;11073;48.586;12.066;2023-03-22T00:07:56;96295.06;;;11.87;59.73
21821;BME280;11073;48.586;12.066;2023-03-22T00:10:46;96293.56;;;11.79;59.91
21821;BME280;11073;48.586;12.066;2023-03-22T00:13:35;96291.03;;;11.73;59.69
21821;BME280;11073;48.586;12.066;2023-03-22T00:16:25;96275.78;;;11.67;59.87
21821;BME280;11073;48.586;12.066;2023-03-22T00:19:16;96280.44;;;11.71;59.72
21821;BME280;11073;48.586;12.066;2023-03-22T00:22:05;96281.53;;;11.70;60.04
21821;BME280;11073;48.586;12.066;2023-03-22T00:24:55;96284.22;;;11.70;60.34
21821;BME280;11073;48.586;12.066;2023-03-22T00:27:44;96278.50;;;11.67;60.21
21821;BME280;11073;48.586;12.066;2023-03-22T00:30:33;96280.13;;;11.68;60.32
21821;BME280;11073;48.586;12.066;2023-03-22T00:33:23;96282.22;;;11.60;60.10
21821;BME280;11073;48.586;12.066;2023-03-22T00:36:14;96272.44;;;11.59;60.32
21821;BME280;11073;48.586;12.066;2023-03-22T00:39:03;96269.63;;;11.54;60.46
21821;BME280;11073;48.586;12.066;2023-03-22T00:41:53;96258.72;;;11.49;60.32
21821;BME280;11073;48.586;12.066;2023-03-22T00:44:42;96268.56;;;11.55;60.43
21821;BME280;11073;48.586;12.066;2023-03-22T00:47:31;96270.03;;;11.63;60.85
21821;BME280;11073;48.586;12.066;2023-03-22T00:50:21;96271.19;;;11.67;60.79
21821;BME280;11073;48.586;12.066;2023-03-22T00:53:11;96254.66;;;11.69;60.53
21821;BME280;11073;48.586;12.066;2023-03-22T00:56:01;96260.38;;;11.72;60.45
21821;BME280;11073;48.586;12.066;2023-03-22T00:58:57;96251.25;;;11.78;60.70
21821;BME280;11073;48.586;12.066;2023-03-22T01:01:48;96242.75;;;11.70;60.72
21821;BME280;11073;48.586;12.066;2023-03-22T01:04:37;96247.00;;;11.66;60.77
21821;BME280;11073;48.586;12.066;2023-03-22T01:07:26;96254.41;;;11.70;60.86
21821;BME280;11073;48.586;12.066;2023-03-22T01:10:17;96262.88;;;11.74;60.64
21821;BME280;11073;48.586;12.066;2023-03-22T01:13:08;96259.56;;;11.72;60.77
21821;BME280;11073;48.586;12.066;2023-03-22T01:15:57;96255.13;;;11.66;60.50
21821;BME280;11073;48.586;12.066;2023-03-22T01:18:46;96257.28;;;11.64;60.66
21821;BME280;11073;48.586;12.066;2023-03-22T01:21:36;96251.69;;;11.70;60.94
21821;BME280;11073;48.586;12.066;2023-03-22T01:24:27;96252.34;;;11.77;60.80
21821;BME280;11073;48.586;12.066;2023-03-22T01:27:17;96245.38;;;11.81;60.88
21821;BME280;11073;48.586;12.066;2023-03-22T01:30:07;96244.06;;;11.84;60.90
21821;BME280;11073;48.586;12.066;2023-03-22T01:32:57;96245.38;;;11.81;60.51
21821;BME280;11073;48.586;12.066;2023-03-22T01:35:47;96239.13;;;11.81;60.58
21821;BME280;11073;48.586;12.066;2023-03-22T01:38:36;96227.78;;;11.84;60.93
21821;BME280;11073;48.586;12.066;2023-03-22T01:41:25;96232.63;;;11.82;60.89
21821;BME280;11073;48.586;12.066;2023-03-22T01:44:18;96218.66;;;11.73;60.78
21821;BME280;11073;48.586;12.066;2023-03-22T01:47:08;96220.53;;;11.73;60.72
21821;BME280;11073;48.586;12.066;2023-03-22T01:49:58;96211.34;;;11.74;60.78
21821;BME280;11073;48.586;12.066;2023-03-22T01:52:49;96211.84;;;11.71;60.83
21821;BME280;11073;48.586;12.066;2023-03-22T01:55:47;96204.06;;;11.57;61.17
21821;BME280;11073;48.586;12.066;2023-03-22T01:58:43;96208.50;;;11.64;60.94
21821;BME280;11073;48.586;12.066;2023-03-22T02:01:37;96212.28;;;11.63;61.20
21821;BME280;11073;48.586;12.066;2023-03-22T02:04:31;96207.19;;;11.66;60.80
21821;BME280;11073;48.586;12.066;2023-03-22T02:07:24;96211.84;;;11.71;60.95
21821;BME280;11073;48.586;12.066;2023-03-22T02:10:17;96217.81;;;11.73;61.09
21821;BME280;11073;48.586;12.066;2023-03-22T02:13:28;96218.41;;;11.75;61.18
21821;BME280;11073;48.586;12.066;2023-03-22T02:17:07;96213.44;;;11.67;61.13
21821;BME280;11073;48.586;12.066;2023-03-22T02:20:43;96217.19;;;11.66;61.20
21821;BME280;11073;48.586;12.066;2023-03-22T02:24:12;96224.19;;;11.62;61.20
21821;BME280;11073;48.586;12.066;2023-03-22T02:27:21;96222.47;;;11.55;61.07
21821;BME280;11073;48.586;12.066;2023-03-22T02:30:28;96226.25;;;11.54;61.53
21821;BME280;11073;48.586;12.066;2023-03-22T02:33:47;96226.25;;;11.54;61.37
21821;BME280;11073;48.586;12.066;2023-03-22T02:36:57;96217.31;;;11.54;61.46
21821;BME280;11073;48.586;12.066;2023-03-22T02:39:55;96220.50;;;11.51;61.52
21821;BME280;11073;48.586;12.066;2023-03-22T02:42:54;96214.84;;;11.52;61.49
21821;BME280;11073;48.586;12.066;2023-03-22T02:45:49;96213.59;;;11.60;61.34
21821;BME280;11073;48.586;12.066;2023-03-22T02:48:43;96213.91;;;11.64;61.28
21821;BME280;11073;48.586;12.066;2023-03-22T02:51:42;96199.28;;;11.65;61.01
21821;BME280;11073;48.586;12.066;2023-03-22T02:54:36;96198.63;;;11.57;61.44
21821;BME280;11073;48.586;12.066;2023-03-22T02:57:35;96192.56;;;11.50;61.05
21821;BME280;11073;48.586;12.066;2023-03-22T03:00:25;96198.94;;;11.39;61.49
21821;BME280;11073;48.586;12.066;2023-03-22T03:03:17;96202.09;;;11.31;61.34
21821;BME280;11073;48.586;12.066;2023-03-22T03:06:12;96196.50;;;11.21;61.99
21821;BME280;11073;48.586;12.066;2023-03-22T03:09:02;96202.41;;;11.18;61.83
21821;BME280;11073;48.586;12.066;2023-03-22T03:11:52;96204.13;;;11.24;62.01
21821;BME280;11073;48.586;12.066;2023-03-22T03:14:44;96199.78;;;11.23;62.16
21821;BME280;11073;48.586;12.066;2023-03-22T03:17:41;96207.50;;;11.31;62.07
21821;BME280;11073;48.586;12.066;2023-03-22T03:20:43;96213.31;;;11.40;61.82
21821;BME280;11073;48.586;12.066;2023-03-22T03:23:43;96213.63;;;11.43;61.83
21821;BME280;11073;48.586;12.066;2023-03-22T03:26:42;96213.78;;;11.37;62.05
21821;BME280;11073;48.586;12.066;2023-03-22T03:29:37;96201.91;;;11.21;62.06
21821;BME280;11073;48.586;12.066;2023-03-22T03:32:37;96227.75;;;11.28;61.88
21821;BME280;11073;48.586;12.066;2023-03-22T03:35:32;96213.56;;;11.21;61.80
21821;BME280;11073;48.586;12.066;2023-03-22T03:38:26;96211.69;;;11.22;62.19
21821;BME280;11073;48.586;12.066;2023-03-22T03:41:20;96214.91;;;11.19;61.97
21821;BME280;11073;48.586;12.066;2023-03-22T03:44:11;96212.59;;;11.11;62.26
21821;BME280;11073;48.586;12.066;2023-03-22T03:47:05;96214.97;;;11.07;62.23
21821;BME280;11073;48.586;12.066;2023-03-22T03:49:55;96211.88;;;10.98;62.00
21821;BME280;11073;48.586;12.066;2023-03-22T03:52:44;96214.47;;;10.93;62.39
21821;BME280;11073;48.586;12.066;2023-03-22T03:55:33;96217.13;;;10.88;62.19
21821;BME280;11073;48.586;12.066;2023-03-22T03:58:23;96207.16;;;10.77;62.09
21821;BME280;11073;48.586;12.066;2023-03-22T04:01:12;96200.94;;;10.60;62.33
21821;BME280;11073;48.586;12.066;2023-03-22T04:04:15;96197.81;;;10.51;62.65
21821;BME280;11073;48.586;12.066;2023-03-22T04:07:09;96193.69;;;10.48;62.80
21821;BME280;11073;48.586;12.066;2023-03-22T04:09:58;96192.16;;;10.53;62.90
21821;BME280;11073;48.586;12.066;2023-03-22T04:12:51;96203.44;;;10.49;62.93
21821;BME280;11073;48.586;12.066;2023-03-22T04:15:40;96194.28;;;10.51;63.01
21821;BME280;11073;48.586;12.066;2023-03-22T04:18:33;96194.84;;;10.53;62.76
21821;BME280;11073;48.586;12.066;2023-03-22T04:21:25;96198.69;;;10.40;62.72
21821;BME280;11073;48.586;12.066;2023-03-22T04:24:19;96196.38;;;10.32;63.06
21821;BME280;11073;48.586;12.066;2023-03-22T04:27:10;96201.44;;;10.28;63.08
21821;BME280;11073;48.586;12.066;2023-03-22T04:30:13;96205.44;;;10.26;63.08
21821;BME280;11073;48.586;12.066;2023-03-22T04:33:20;96201.34;;;10.23;63.25
21821;BME280;11073;48.586;12.066;2023-03-22T04:36:28;96204.75;;;10.18;63.10
21821;BME280;11073;48.586;12.066;2023-03-22T04:39:41;96205.31;;;10.20;63.38
21821;BME280;11073;48.586;12.066;2023-03-22T04:42:53;96211.34;;;10.23;63.54
21821;BME280;11073;48.586;12.066;2023-03-22T04:46:01;96198.50;;;10.18;63.29
21821;BME280;11073;48.586;12.066;2023-03-22T04:48:58;96202.69;;;10.09;63.24
21821;BME280;11073;48.586;12.066;2023-03-22T04:51:48;96202.44;;;10.10;63.50
21821;BME280;11073;48.586;12.066;2023-03-22T04:54:45;96196.19;;;10.10;63.50
21821;BME280;11073;48.586;12.066;2023-03-22T04:57:34;96187.91;;;10.00;63.26
21821;BME280;11073;48.586;12.066;2023-03-22T05:00:23;96194.59;;;9.97;63.50
21821;BME280;11073;48.586;12.066;2023-03-22T05:03:13;96192.31;;;10.06;63.62
21821;BME280;11073;48.586;12.066;2023-03-22T05:06:08;96191.75;;;10.04;63.34
21821;BME280;11073;48.586;12.066;2023-03-22T05:09:09;96196.44;;;10.08;63.67
21821;BME280;11073;48.586;12.066;2023-03-22T05:12:00;96199.41;;;10.07;63.67
21821;BME280;11073;48.586;12.066;2023-03-22T05:15:05;96195.38;;;10.09;63.16
21821;BME280;11073;48.586;12.066;2023-03-22T05:17:57;96201.19;;;10.01;63.00
21821;BME280;11073;48.586;12.066;2023-03-22T05:20:47;96199.44;;;9.95;63.34
21821;BME280;11073;48.586;12.066;2023-03-22T05:23:39;96210.00;;;9.97;63.58
21821;BME280;11073;48.586;12.066;2023-03-22T05:26:30;96208.69;;;9.99;63.29
21821;BME280;11073;48.586;12.066;2023-03-22T05:29:21;96205.75;;;10.01;63.41
21821;BME280;11073;48.586;12.066;2023-03-22T05:32:27;96212.00;;;10.01;63.60
21821;BME280;11073;48.586;12.066;2023-03-22T05:35:16;96211.75;;;10.03;63.19
21821;BME280;11073;48.586;12.066;2023-03-22T05:38:10;96212.69;;;9.97;63.23
21821;BME280;11073;48.586;12.066;2023-03-22T05:41:05;96217.03;;;9.98;63.09
21821;BME280;11073;48.586;12.066;2023-03-22T05:43:54;96213.78;;;9.95;63.38
21821;BME280;11073;48.586;12.066;2023-03-22T05:46:45;96210.94;;;9.90;63.29
21821;BME280;11073;48.586;12.066;2023-03-22T05:49:52;96215.22;;;9.86;63.40
21821;BME280;11073;48.586;12.066;2023-03-22T05:52:43;96210.25;;;9.83;63.32
21821;BME280;11073;48.586;12.066;2023-03-22T05:55:41;96215.44;;;9.85;63.61
21821;BME280;11073;48.586;12.066;2023-03-22T05:58:32;96227.81;;;9.81;63.64
21821;BME280;11073;48.586;12.066;2023-03-22T06:01:22;96216.84;;;9.87;63.67
21821;BME280;11073;48.586;12.066;2023-03-22T06:04:30;96221.00;;;9.78;63.51
21821;BME280;11073;48.586;12.066;2023-03-22T06:07:22;96215.94;;;9.70;63.74
21821;BME280;11073;48.586;12.066;2023-03-22T06:10:15;96219.69;;;9.81;64.12
21821;BME280;11073;48.586;12.066;2023-03-22T06:13:04;96209.00;;;9.86;63.88
21821;BME280;11073;48.586;12.066;2023-03-22T06:15:54;96212.50;;;9.86;63.99
21821;BME280;11073;48.586;12.066;2023-03-22T06:18:45;96215.44;;;9.85;63.74
21821;BME280;11073;48.586;12.066;2023-03-22T06:21:36;96223.66;;;9.90;64.05
21821;BME280;11073;48.586;12.066;2023-03-22T06:24:25;96209.06;;;9.91;64.10
21821;BME280;11073;48.586;12.066;2023-03-22T06:27:15;96216.91;;;10.04;64.02
21821;BME280;11073;48.586;12.066;2023-03-22T06:30:06;96211.84;;;10.08;63.93
21821;BME280;11073;48.586;12.066;2023-03-22T06:33:08;96222.03;;;10.17;63.87
21821;BME280;11073;48.586;12.066;2023-03-22T06:36:01;96198.56;;;10.06;63.94
21821;BME280;11073;48.586;12.066;2023-03-22T06:39:02;96223.56;;;10.25;63.77
21821;BME280;11073;48.586;12.066;2023-03-22T06:41:52;96223.75;;;10.35;63.97
21821;BME280;11073;48.586;12.066;2023-03-22T06:44:42;96232.31;;;10.44;63.50
21821;BME280;11073;48.586;12.066;2023-03-22T06:47:45;96232.50;;;10.54;63.60
21821;BME280;11073;48.586;12.066;2023-03-22T06:51:06;96235.63;;;10.63;63.20
21821;BME280;11073;48.586;12.066;2023-03-22T06:53:57;96245.00;;;10.72;63.07
21821;BME280;11073;48.586;12.066;2023-03-22T06:56:47;96238.13;;;10.81;63.12
21821;BME280;11073;48.586;12.066;2023-03-22T06:59:37;96235.25;;;10.88;62.81
21821;BME280;11073;48.586;12.066;2023-03-22T07:02:25;96239.69;;;10.94;62.57
21821;BME280;11073;48.586;12.066;2023-03-22T07:05:37;96239.59;;;11.05;62.93
21821;BME280;11073;48.586;12.066;2023-03-22T07:08:26;96241.06;;;11.13;62.71
21821;BME280;11073;48.586;12.066;2023-03-22T07:11:15;96235.41;;;11.15;62.39
21821;BME280;11073;48.586;12.066;2023-03-22T07:14:09;96239.59;;;11.22;62.34
21821;BME280;11073;48.586;12.066;2023-03-22T07:17:12;96226.94;;;11.28;62.47
21821;BME280;11073;48.586;12.066;2023-03-22T07:20:02;96233.91;;;11.41;62.10
21821;BME280;11073;48.586;12.066;2023-03-22T07:22:52;96236.47;;;11.47;61.90
21821;BME280;11073;48.586;12.066;2023-03-22T07:25:46;96237.66;;;11.56;61.90
21821;BME280;11073;48.586;12.066;2023-03-22T07:28:46;96234.03;;;11.68;62.01
21821;BME280;11073;48.586;12.066;2023-03-22T07:31:36;96223.84;;;11.75;62.00
21821;BME280;11073;48.586;12.066;2023-03-22T07:34:31;96233.47;;;11.82;61.87
21821;BME280;11073;48.586;12.066;2023-03-22T07:37:23;96234.66;;;11.92;61.94
21821;BME280;11073;48.586;12.066;2023-03-22T07:40:12;96225.25;;;11.99;61.83
21821;BME280;11073;48.586;12.066;2023-03-22T07:43:02;96231.31;;;12.06;61.65
21821;BME280;11073;48.586;12.066;2023-03-22T07:46:01;96227.66;;;12.18;61.54
21821;BME280;11073;48.586;12.066;2023-03-22T07:49:10;96236.72;;;12.28;61.29
21821;BME280;11073;48.586;12.066;2023-03-22T07:52:22;96235.44;;;12.36;61.04
21821;BME280;11073;48.586;12.066;2023-03-22T07:55:12;96217.78;;;12.33;60.85
21821;BME280;11073;48.586;12.066;2023-03-22T07:58:02;96226.91;;;12.49;60.95
21821;BME280;11073;48.586;12.066;2023-03-22T08:00:52;96224.34;;;12.64;60.92
21821;BME280;11073;48.586;12.066;2023-03-22T08:04:07;96226.72;;;12.83;60.67
21821;BME280;11073;48.586;12.066;2023-03-22T08:07:17;96221.19;;;13.05;60.51
21821;BME280;11073;48.586;12.066;2023-03-22T08:10:07;96217.47;;;13.16;59.94
21821;BME280;11073;48.586;12.066;2023-03-22T08:12:56;96236.41;;;13.38;59.65
21821;BME280;11073;48.586;12.066;2023-03-22T08:15:46;96227.84;;;13.56;59.33
21821;BME280;11073;48.586;12.066;2023-03-22T08:18:38;96237.19;;;13.70;59.01
21821;BME280;11073;48.586;12.066;2023-03-22T08:21:28;96240.50;;;13.83;58.17
21821;BME280;11073;48.586;12.066;2023-03-22T08:24:19;96238.69;;;13.98;57.80
21821;BME280;11073;48.586;12.066;2023-03-22T08:27:14;96243.63;;;14.12;57.62
21821;BME280;11073;48.586;12.066;2023-03-22T08:30:07;96242.59;;;14.23;57.43
21821;BME280;11073;48.586;12.066;2023-03-22T08:32:56;96235.63;;;14.47;56.98
21821;BME280;11073;48.586;12.066;2023-03-22T08:35:46;96238.44;;;14.73;56.52
21821;BME280;11073;48.586;12.066;2023-03-22T08:38:36;96241.72;;;14.85;55.95
21821;BME280;11073;48.586;12.066;2023-03-22T08:41:27;96246.38;;;14.95;55.52
21821;BME280;11073;48.586;12.066;2023-03-22T08:44:17;96245.03;;;15.07;55.08
21821;BME280;11073;48.586;12.066;2023-03-22T08:47:06;96251.00;;;15.20;54.38
21821;BME280;11073;48.586;12.066;2023-03-22T08:49:55;96247.22;;;15.36;54.02
21821;BME280;11073;48.586;12.066;2023-03-22T08:52:54;96248.56;;;15.59;53.78
21821;BME280;11073;48.586;12.066;2023-03-22T08:55:50;96245.28;;;15.52;53.12
21821;BME280;11073;48.586;12.066;2023-03-22T08:58:59;96252.13;;;15.64;52.48
21821;BME280;11073;48.586;12.066;2023-03-22T09:02:11;96234.88;;;15.89;51.88
21821;BME280;11073;48.586;12.066;2023-03-22T09:05:01;96248.47;;;16.05;51.42
21821;BME280;11073;48.586;12.066;2023-03-22T09:07:52;96242.13;;;16.24;51.15
21821;BME280;11073;48.586;12.066;2023-03-22T09:10:48;96246.72;;;16.39;50.69
21821;BME280;11073;48.586;12.066;2023-03-22T09:13:41;96241.47;;;16.53;50.54
21821;BME280;11073;48.586;12.066;2023-03-22T09:16:31;96241.94;;;16.65;50.27
21821;BME280;11073;48.586;12.066;2023-03-22T09:19:22;96240.72;;;16.92;49.81
21821;BME280;11073;48.586;12.066;2023-03-22T09:22:11;96235.53;;;16.90;49.40
21821;BME280;11073;48.586;12.066;2023-03-22T09:25:07;96241.47;;;17.02;48.75
21821;BME280;11073;48.586;12.066;2023-03-22T09:28:00;96239.91;;;16.91;48.53
21821;BME280;11073;48.586;12.066;2023-03-22T09:30:51;96237.06;;;17.06;48.14
21821;BME280;11073;48.586;12.066;2023-03-22T09:33:41;96225.44;;;17.25;47.80
21821;BME280;11073;48.586;12.066;2023-03-22T09:36:30;96226.31;;;17.15;47.73
21821;BME280;11073;48.586;12.066;2023-03-22T09:39:21;96217.25;;;17.25;47.43
21821;BME280;11073;48.586;12.066;2023-03-22T09:42:25;96212.63;;;17.49;47.07
21821;BME280;11073;48.586;12.066;2023-03-22T09:45:21;96212.50;;;17.64;46.59
21821;BME280;11073;48.586;12.066;2023-03-22T09:48:18;96200.78;;;17.88;46.25
21821;BME280;11073;48.586;12.066;2023-03-22T09:51:25;96201.53;;;18.17;45.95
21821;BME280;11073;48.586;12.066;2023-03-22T09:54:18;96199.59;;;18.42;45.28
21821;BME280;11073;48.586;12.066;2023-03-22T09:57:12;96189.13;;;18.44;45.02
21821;BME280;11073;48.586;12.066;2023-03-22T10:00:10;96198.78;;;18.41;44.59
21821;BME280;11073;48.586;12.066;2023-03-22T10:03:15;96195.22;;;18.60;44.31
21821;BME280;11073;48.586;12.066;2023-03-22T10:06:14;96200.34;;;19.04;43.68
21821;BME280;11073;48.586;12.066;2023-03-22T10:09:08;96194.66;;;19.00;42.86
21821;BME280;11073;48.586;12.066;2023-03-22T10:12:08;96182.13;;;19.13;42.49
21821;BME280;11073;48.586;12.066;2023-03-22T10:15:03;96183.75;;;19.14;42.29
21821;BME280;11073;48.586;12.066;2023-03-22T10:17:54;96180.88;;;19.38;41.97
21821;BME280;11073;48.586;12.066;2023-03-22T10:20:48;96184.06;;;19.78;41.32
21821;BME280;11073;48.586;12.066;2023-03-22T10:23:44;96190.78;;;19.99;40.73
21821;BME280;11073;48.586;12.066;2023-03-22T10:26:37;96188.72;;;19.77;40.37
21821;BME280;11073;48.586;12.066;2023-03-22T10:29:30;96184.06;;;19.78;40.12
21821;BME280;11073;48.586;12.066;2023-03-22T10:32:26;96191.97;;;19.79;39.56
21821;BME280;11073;48.586;12.066;2023-03-22T10:35:17;96182.91;;;20.20;39.95
21821;BME280;11073;48.586;12.066;2023-03-22T10:38:14;96178.53;;;20.60;39.46
21821;BME280;11073;48.586;12.066;2023-03-22T10:41:06;96187.75;;;20.78;38.69
21821;BME280;11073;48.586;12.066;2023-03-22T10:43:58;96184.13;;;20.42;38.39
21821;BME280;11073;48.586;12.066;2023-03-22T10:46:48;96189.34;;;20.29;38.28
21821;BME280;11073;48.586;12.066;2023-03-22T10:49:43;96187.19;;;20.68;38.03
21821;BME280;11073;48.586;12.066;2023-03-22T10:52:40;96171.16;;;20.83;37.70
21821;BME280;11073;48.586;12.066;2023-03-22T10:55:30;96175.16;;;21.22;37.56
21821;BME280;11073;48.586;12.066;2023-03-22T10:58:22;96159.88;;;21.52;37.27
21821;BME280;11073;48.586;12.066;2023-03-22T11:01:13;96179.56;;;21.68;36.71
21821;BME280;11073;48.586;12.066;2023-03-22T11:04:08;96181.44;;;21.59;36.42
21821;BME280;11073;48.586;12.066;2023-03-22T11:06:58;96175.03;;;21.72;36.04
21821;BME280;11073;48.586;12.066;2023-03-22T11:09:47;96175.03;;;22.03;35.69
21821;BME280;11073;48.586;12.066;2023-03-22T11:12:37;96182.56;;;22.20;35.54
21821;BME280;11073;48.586;12.066;2023-03-22T11:15:30;96179.09;;;22.45;35.46
21821;BME280;11073;48.586;12.066;2023-03-22T11:18:19;96170.78;;;22.37;35.01
21821;BME280;11073;48.586;12.066;2023-03-22T11:21:10;96175.06;;;22.60;34.69
21821;BME280;11073;48.586;12.066;2023-03-22T11:24:02;96160.75;;;22.58;33.99
21821;BME280;11073;48.586;12.066;2023-03-22T11:27:03;96158.50;;;22.69;33.61
21821;BME280;11073;48.586;12.066;2023-03-22T11:29:56;96151.75;;;22.92;33.42
21821;BME280;11073;48.586;12.066;2023-03-22T11:32:47;96154.47;;;23.35;33.27
21821;BME280;11073;48.586;12.066;2023-03-22T11:35:37;96157.38;;;23.39;32.64
21821;BME280;11073;48.586;12.066;2023-03-22T11:38:29;96147.66;;;23.16;32.43
21821;BME280;11073;48.586;12.066;2023-03-22T11:41:24;96140.50;;;23.32;32.69
21821;BME280;11073;48.586;12.066;2023-03-22T11:44:15;96140.44;;;23.66;32.45
21821;BME280;11073;48.586;12.066;2023-03-22T11:47:07;96139.25;;;23.85;32.34
21821;BME280;11073;48.586;12.066;2023-03-22T11:50:03;96134.38;;;23.90;32.06
21821;BME280;11073;48.586;12.066;2023-03-22T11:52:54;96137.66;;;23.84;31.85
21821;BME280;11073;48.586;12.066;2023-03-22T11:55:44;96130.88;;;23.64;31.67
21821;BME280;11073;48.586;12.066;2023-03-22T11:58:52;96128.22;;;23.85;31.88
21821;BME280;11073;48.586;12.066;2023-03-22T12:01:46;96118.59;;;23.91;31.52
21821;BME280;11073;48.586;12.066;2023-03-22T12:04:39;96122.94;;;24.01;31.52
21821;BME280;11073;48.586;12.066;2023-03-22T12:07:31;96120.81;;;24.06;31.30
21821;BME280;11073;48.586;12.066;2023-03-22T12:10:25;96120.16;;;24.39;31.07
21821;BME280;11073;48.586;12.066;2023-03-22T12:13:20;96104.53;;;24.64;30.91
21821;BME280;11073;48.586;12.066;2023-03-22T12:16:14;96095.75;;;25.03;30.82
21821;BME280;11073;48.586;12.066;2023-03-22T12:19:13;96096.97;;;24.94;30.46
21821;BME280;11073;48.586;12.066;2023-03-22T12:22:10;96088.91;;;25.01;30.10
21821;BME280;11073;48.586;12.066;2023-03-22T12:25:00;96082.22;;;25.23;29.82
21821;BME280;11073;48.586;12.066;2023-03-22T12:27:52;96073.28;;;25.38;29.69
21821;BME280;11073;48.586;12.066;2023-03-22T12:30:44;96078.81;;;25.38;29.13
21821;BME280;11073;48.586;12.066;2023-03-22T12:33:37;96072.91;;;25.40;29.19
21821;BME280;11073;48.586;12.066;2023-03-22T12:36:36;96072.84;;;25.61;29.16
21821;BME280;11073;48.586;12.066;2023-03-22T12:39:32;96066.28;;;25.65;28.99
21821;BME280;11073;48.586;12.066;2023-03-22T12:42:28;96063.44;;;26.10;28.98
21821;BME280;11073;48.586;12.066;2023-03-22T12:45:25;96060.44;;;26.40;28.72
21821;BME280;11073;48.586;12.066;2023-03-22T12:48:16;96069.03;;;26.63;28.50
21821;BME280;11073;48.586;12.066;2023-03-22T12:51:08;96075.53;;;26.55;28.24
21821;BME280;11073;48.586;12.066;2023-03-22T12:53:59;96066.66;;;26.49;27.71
21821;BME280;11073;48.586;12.066;2023-03-22T12:56:50;96060.28;;;26.49;27.78
21821;BME280;11073;48.586;12.066;2023-03-22T12:59:41;96072.25;;;26.77;27.87
21821;BME280;11073;48.586;12.066;2023-03-22T13:02:33;96060.47;;;26.80;27.56
21821;BME280;11073;48.586;12.066;2023-03-22T13:05:26;96053.56;;;26.62;27.18
21821;BME280;11073;48.586;12.066;2023-03-22T13:08:18;96045.03;;;26.43;26.91
21821;BME280;11073;48.586;12.066;2023-03-22T13:11:21;96030.47;;;26.33;26.97
21821;BME280;11073;48.586;12.066;2023-03-22T13:14:12;96049.44;;;26.31;26.77
21821;BME280;11073;48.586;12.066;2023-03-22T13:17:05;96036.47;;;26.35;26.74
21821;BME280;11073;48.586;12.066;2023-03-22T13:19:59;96044.56;;;26.53;26.70
21821;BME280;11073;48.586;12.066;2023-03-22T13:23:09;96037.53;;;26.43;26.55
21821;BME280;11073;48.586;12.066;2023-03-22T13:26:03;96007.00;;;26.31;26.57
21821;BME280;11073;48.586;12.066;2023-03-22T13:28:55;96037.34;;;26.64;26.67
21821;BME280;11073;48.586;12.066;2023-03-22T13:31:53;96044.88;;;26.63;26.20
21821;BME280;11073;48.586;12.066;2023-03-22T13:34:48;96021.19;;;26.54;26.21
21821;BME280;11073;48.586;12.066;2023-03-22T13:37:44;96017.50;;;26.50;26.26
21821;BME280;11073;48.586;12.066;2023-03-22T13:40:37;96021.19;;;26.54;26.37
21821;BME280;11073;48.586;12.066;2023-03-22T13:43:34;96025.72;;;26.46;26.18
21821;BME280;11073;48.586;12.066;2023-03-22T13:46:45;96010.38;;;26.24;25.82
21821;BME280;11073;48.586;12.066;2023-03-22T13:49:47;96013.97;;;26.12;26.01
21821;BME280;11073;48.586;12.066;2023-03-22T13:52:40;96008.53;;;25.67;26.00
21821;BME280;11073;48.586;12.066;2023-03-22T13:55:40;96003.63;;;25.73;25.92
21821;BME280;11073;48.586;12.066;2023-03-22T13:58:36;95981.28;;;25.69;25.81
21821;BME280;11073;48.586;12.066;2023-03-22T14:01:40;95960.50;;;25.63;25.76
21821;BME280;11073;48.586;12.066;2023-03-22T14:04:38;95936.59;;;25.46;25.95
21821;BME280;11073;48.586;12.066;2023-03-22T14:07:51;95974.59;;;25.58;25.86
21821;BME280;11073;48.586;12.066;2023-03-22T14:42:32;95958.91;;;26.51;25.38
21821;BME280;11073;48.586;12.066;2023-03-22T15:22:09;95872.16;;;25.86;25.41
21821;BME280;11073;48.586;12.066;2023-03-22T15:25:13;95866.63;;;25.49;25.27
21821;BME280;11073;48.586;12.066;2023-03-22T15:28:26;95925.28;;;25.64;25.48
21821;BME280;11073;48.586;12.066;2023-03-22T15:32:00;95857.44;;;25.09;25.65
21821;BME280;11073;48.586;12.066;2023-03-22T15:46:16;95916.81;;;26.09;26.03
21821;BME280;11073;48.586;12.066;2023-03-22T15:49:17;95920.19;;;26.43;25.81
21821;BME280;11073;48.586;12.066;2023-03-22T15:52:08;95919.94;;;26.48;25.42
21821;BME280;11073;48.586;12.066;2023-03-22T15:55:00;95902.66;;;26.26;25.20
21821;BME280;11073;48.586;12.066;2023-03-22T15:57:53;95923.53;;;26.36;25.40
21821;BME280;11073;48.586;12.066;2023-03-22T16:00:42;95918.78;;;26.08;25.27
21821;BME280;11073;48.586;12.066;2023-03-22T16:03:38;95913.28;;;25.60;25.23
21821;BME280;11073;48.586;12.066;2023-03-22T16:06:28;95907.25;;;25.70;25.45
21821;BME280;11073;48.586;12.066;2023-03-22T16:09:17;95907.19;;;25.29;25.98
21821;BME280;11073;48.586;12.066;2023-03-22T16:12:05;95921.53;;;24.98;26.20
21821;BME280;11073;48.586;12.066;2023-03-22T16:14:53;95918.09;;;24.56;26.11
21821;BME280;11073;48.586;12.066;2023-03-22T16:17:41;95915.94;;;24.20;26.69
21821;BME280;11073;48.586;12.066;2023-03-22T16:20:30;95912.91;;;23.92;26.74
21821;BME280;11073;48.586;12.066;2023-03-22T16:23:20;95912.22;;;23.74;26.91
21821;BME280;11073;48.586;12.066;2023-03-22T16:26:11;95923.88;;;23.50;27.27
21821;BME280;11073;48.586;12.066;2023-03-22T16:29:00;95919.75;;;23.35;27.43
21821;BME280;11073;48.586;12.066;2023-03-22T16:31:48;95921.88;;;23.30;27.95
21821;BME280;11073;48.586;12.066;2023-03-22T16:34:35;95924.13;;;23.36;27.90